createdAt,value
2023-11-02T00:01:40.461Z,0.98
2023-11-02T00:04:07.798Z,0.90
2023-11-02T00:06:39.017Z,1.52
2023-11-02T00:09:06.951Z,1.00
2023-11-02T00:11:52.452Z,0.90
2023-11-02T00:14:20.094Z,0.85
2023-11-02T00:16:47.553Z,0.70
2023-11-02T00:19:31.401Z,0.98
2023-11-02T00:21:59.468Z,0.75
2023-11-02T00:24:28.239Z,0.93
2023-11-02T00:26:56.179Z,0.90
2023-11-02T00:29:23.054Z,0.70
2023-11-02T00:31:49.877Z,0.75
2023-11-02T00:34:17.099Z,0.80
2023-11-02T00:36:43.946Z,0.88
2023-11-02T00:39:11.411Z,0.70
2023-11-02T00:41:38.585Z,0.90
2023-11-02T00:44:06.314Z,0.73
2023-11-02T00:46:35.992Z,0.98
2023-11-02T00:49:03.838Z,0.80
2023-11-02T00:51:32.133Z,0.70
2023-11-02T00:54:00.297Z,0.70
2023-11-02T00:56:31.356Z,0.80
2023-11-02T00:58:59.586Z,0.80
2023-11-02T01:01:28.007Z,0.85
2023-11-02T01:03:55.362Z,0.70
2023-11-02T01:06:28.675Z,0.80
2023-11-02T01:08:56.994Z,0.63
2023-11-02T01:11:24.873Z,0.70
2023-11-02T01:13:51.677Z,0.90
2023-11-02T01:16:19.244Z,0.70
2023-11-02T01:18:47.209Z,0.68
2023-11-02T01:21:15.243Z,0.90
2023-11-02T01:23:43.052Z,0.80
2023-11-02T01:26:28.450Z,0.90
2023-11-02T01:28:55.653Z,0.73
2023-11-02T01:31:22.874Z,0.70
2023-11-02T01:33:49.985Z,0.73
2023-11-02T01:36:22.273Z,0.90
2023-11-02T01:38:49.544Z,0.88
2023-11-02T01:41:22.970Z,0.60
2023-11-02T01:44:08.333Z,0.85
2023-11-02T01:46:35.120Z,0.80
2023-11-02T01:49:12.838Z,0.73
2023-11-02T01:51:45.428Z,0.73
2023-11-02T01:54:48.043Z,0.60
2023-11-02T01:57:21.511Z,0.60
2023-11-02T01:59:58.935Z,0.80
2023-11-02T02:02:47.234Z,0.90
2023-11-02T02:05:17.243Z,0.75
2023-11-02T02:08:02.171Z,0.90
2023-11-02T02:10:43.730Z,0.70
2023-11-02T02:13:13.851Z,0.70
2023-11-02T02:15:49.634Z,0.93
2023-11-02T02:18:35.743Z,0.70
2023-11-02T02:21:09.429Z,0.73
2023-11-02T02:23:44.864Z,0.70
2023-11-02T02:26:32.484Z,0.63
2023-11-02T02:29:02.631Z,0.80
2023-11-02T02:31:38.704Z,0.70
2023-11-02T02:34:12.511Z,0.73
2023-11-02T02:36:45.252Z,0.85
2023-11-02T02:39:15.800Z,0.80
2023-11-02T02:41:44.587Z,0.80
2023-11-02T02:44:13.092Z,0.73
2023-11-02T02:46:40.487Z,0.82
2023-11-02T02:49:07.749Z,0.95
2023-11-02T02:51:36.724Z,1.13
2023-11-02T02:54:08.732Z,0.60
2023-11-02T02:56:37.523Z,0.80
2023-11-02T02:59:05.296Z,0.77
2023-11-02T03:01:38.367Z,0.70
2023-11-02T03:04:09.411Z,0.80
2023-11-02T03:06:37.433Z,0.93
2023-11-02T03:09:05.855Z,0.90
2023-11-02T03:11:33.867Z,0.77
2023-11-02T03:14:01.304Z,0.93
2023-11-02T03:16:28.345Z,0.65
2023-11-02T03:18:55.201Z,0.80
2023-11-02T03:21:22.133Z,0.73
2023-11-02T03:23:54.842Z,0.70
2023-11-02T03:26:40.768Z,0.98
2023-11-02T03:29:21.821Z,0.70
2023-11-02T03:32:00.663Z,0.73
2023-11-02T03:34:27.737Z,0.70
2023-11-02T03:37:12.557Z,0.73
2023-11-02T03:39:53.259Z,0.95
2023-11-02T03:42:27.721Z,0.70
2023-11-02T03:45:16.047Z,0.80
2023-11-02T03:48:05.257Z,0.90
2023-11-02T03:50:39.357Z,1.13
2023-11-02T03:53:09.092Z,1.02
2023-11-02T03:55:45.785Z,1.02
2023-11-02T03:58:21.366Z,1.30
2023-11-02T04:00:56.106Z,1.05
2023-11-02T04:03:24.109Z,1.50
2023-11-02T04:05:52.836Z,1.35
2023-11-02T04:08:20.795Z,1.25
2023-11-02T04:10:57.412Z,1.30
2023-11-02T04:13:30.693Z,1.25
2023-11-02T04:15:57.549Z,1.45
2023-11-02T04:18:24.313Z,1.10
2023-11-02T04:20:53.487Z,1.40
2023-11-02T04:23:26.437Z,1.42
2023-11-02T04:25:55.801Z,1.38
2023-11-02T04:28:23.867Z,1.20
2023-11-02T04:30:50.743Z,1.17
2023-11-02T04:33:18.141Z,1.38
2023-11-02T04:35:45.286Z,1.23
2023-11-02T04:38:12.273Z,1.50
2023-11-02T04:40:42.350Z,1.48
2023-11-02T04:43:09.675Z,1.70
2023-11-02T04:45:38.597Z,1.65
2023-11-02T04:48:07.922Z,2.10
2023-11-02T04:50:34.867Z,1.70
2023-11-02T04:53:02.949Z,1.33
2023-11-02T04:55:29.636Z,1.77
2023-11-02T04:57:56.317Z,1.35
2023-11-02T05:00:23.655Z,1.65
2023-11-02T05:02:50.690Z,1.65
2023-11-02T05:05:17.633Z,2.00
2023-11-02T05:07:44.366Z,1.40
2023-11-02T05:10:11.694Z,1.70
2023-11-02T05:12:38.443Z,1.65
2023-11-02T05:15:05.364Z,1.23
2023-11-02T05:17:32.273Z,1.88
2023-11-02T05:19:59.022Z,0.88
2023-11-02T05:22:25.733Z,1.55
2023-11-02T05:24:52.955Z,2.38
2023-11-02T05:27:19.775Z,1.90
2023-11-02T05:29:46.453Z,1.45
2023-11-02T05:32:13.682Z,1.80
2023-11-02T05:34:40.472Z,1.90
2023-11-02T05:37:07.245Z,1.80
2023-11-02T05:39:33.967Z,1.70
2023-11-02T05:42:00.848Z,1.83
2023-11-02T05:44:27.637Z,1.73
2023-11-02T05:46:54.448Z,1.40
2023-11-02T05:49:21.425Z,1.67
2023-11-02T05:51:48.858Z,1.38
2023-11-02T05:54:15.689Z,1.60
2023-11-02T05:56:43.166Z,1.30
2023-11-02T05:59:12.316Z,1.50
2023-11-02T06:01:39.334Z,1.58
2023-11-02T06:04:06.713Z,1.88
2023-11-02T06:06:33.512Z,1.52
2023-11-02T06:09:00.855Z,0.68
2023-11-02T06:11:27.875Z,1.70
2023-11-02T06:13:54.683Z,1.67
2023-11-02T06:16:23.128Z,1.80
2023-11-02T06:18:50.304Z,1.48
2023-11-02T06:21:17.138Z,1.73
2023-11-02T06:23:43.952Z,1.33
2023-11-02T06:26:10.740Z,1.50
2023-11-02T06:28:38.053Z,1.85
2023-11-02T06:31:05.498Z,1.67
2023-11-02T06:33:33.203Z,1.60
2023-11-02T06:36:01.954Z,1.55
2023-11-02T06:38:30.802Z,1.73
2023-11-02T06:40:57.917Z,1.40
2023-11-02T06:43:25.399Z,1.98
2023-11-02T06:45:53.434Z,1.85
2023-11-02T06:48:20.287Z,1.77
2023-11-02T06:50:48.453Z,1.60
2023-11-02T06:53:15.279Z,1.50
2023-11-02T06:55:42.030Z,1.63
2023-11-02T06:58:08.919Z,1.63
2023-11-02T07:00:36.369Z,1.80
2023-11-02T07:03:03.314Z,1.55
2023-11-02T07:05:30.226Z,1.75
2023-11-02T07:07:57.165Z,1.73
2023-11-02T07:10:24.474Z,1.48
2023-11-02T07:12:51.324Z,1.42
2023-11-02T07:15:18.157Z,1.55
2023-11-02T07:17:44.985Z,1.50
2023-11-02T07:20:12.180Z,1.40
2023-11-02T07:22:39.773Z,2.00
2023-11-02T07:25:07.163Z,1.80
2023-11-02T07:27:34.301Z,1.50
2023-11-02T07:30:01.445Z,1.15
2023-11-02T07:32:28.470Z,1.38
2023-11-02T07:34:55.237Z,1.60
2023-11-02T07:37:21.978Z,1.83
2023-11-02T07:39:48.879Z,1.30
2023-11-02T07:42:15.861Z,1.40
2023-11-02T07:44:44.149Z,1.90
2023-11-02T07:47:10.839Z,1.40
2023-11-02T07:49:39.383Z,1.52
2023-11-02T07:52:06.943Z,1.50
2023-11-02T07:54:37.843Z,1.30
2023-11-02T07:57:12.328Z,1.45
2023-11-02T07:59:39.495Z,1.10
2023-11-02T08:02:06.852Z,1.33
2023-11-02T08:04:34.701Z,1.40
2023-11-02T08:07:02.504Z,1.08
2023-11-02T08:09:29.533Z,1.30
2023-11-02T08:11:58.334Z,1.33
2023-11-02T08:14:25.072Z,1.42
2023-11-02T08:16:52.136Z,1.15
2023-11-02T08:19:19.119Z,1.45
2023-11-02T08:21:46.365Z,1.30
2023-11-02T08:24:13.695Z,1.55
2023-11-02T08:26:40.651Z,1.48
2023-11-02T08:29:07.379Z,1.38
2023-11-02T08:31:34.382Z,1.40
2023-11-02T08:34:03.741Z,1.25
2023-11-02T08:36:33.070Z,1.70
2023-11-02T08:39:00.559Z,1.50
2023-11-02T08:41:28.393Z,1.27
2023-11-02T08:43:56.131Z,1.52
2023-11-02T08:46:26.717Z,1.52
2023-11-02T08:48:55.198Z,1.45
2023-11-02T08:51:22.948Z,1.13
2023-11-02T08:53:50.318Z,1.52
2023-11-02T08:56:17.238Z,1.30
2023-11-02T08:58:48.239Z,1.50
2023-11-02T09:01:19.371Z,1.35
2023-11-02T09:03:46.757Z,1.67
2023-11-02T09:06:14.276Z,1.15
2023-11-02T09:08:41.543Z,1.67
2023-11-02T09:11:08.382Z,1.35
2023-11-02T09:13:35.632Z,1.70
2023-11-02T09:16:03.040Z,1.52
2023-11-02T09:18:30.310Z,0.60
2023-11-02T09:20:57.556Z,1.42
2023-11-02T09:23:24.445Z,1.73
2023-11-02T09:25:51.997Z,1.40
2023-11-02T09:28:19.381Z,1.50
2023-11-02T09:30:47.424Z,1.40
2023-11-02T09:33:14.396Z,1.58
2023-11-02T09:35:41.692Z,1.80
2023-11-02T09:38:08.398Z,1.60
2023-11-02T09:40:35.328Z,1.50
2023-11-02T09:43:04.195Z,1.60
2023-11-02T09:45:31.608Z,2.00
2023-11-02T09:47:58.636Z,1.73
2023-11-02T09:50:25.863Z,1.75
2023-11-02T09:52:54.965Z,1.83
2023-11-02T09:55:25.297Z,1.80
2023-11-02T09:57:52.340Z,1.70
2023-11-02T10:00:20.145Z,1.63
2023-11-02T10:02:48.084Z,1.88
2023-11-02T10:05:15.127Z,1.75
2023-11-02T10:07:41.854Z,1.67
2023-11-02T10:10:11.259Z,1.70
2023-11-02T10:12:39.187Z,1.60
2023-11-02T10:15:06.476Z,1.88
2023-11-02T10:17:39.643Z,1.70
2023-11-02T10:20:10.225Z,1.63
2023-11-02T10:22:37.159Z,1.70
2023-11-02T10:25:05.061Z,1.58
2023-11-02T10:27:32.575Z,1.52
2023-11-02T10:29:59.333Z,1.92
2023-11-02T10:32:26.168Z,1.60
2023-11-02T10:34:53.542Z,1.90
2023-11-02T10:37:33.150Z,1.88
2023-11-02T10:40:00.491Z,1.85
2023-11-02T10:42:28.058Z,1.67
2023-11-02T10:44:56.003Z,1.90
2023-11-02T10:47:26.798Z,1.90
2023-11-02T10:49:55.526Z,1.95
2023-11-02T10:52:29.594Z,2.10
2023-11-02T10:55:01.831Z,2.00
2023-11-02T10:57:30.466Z,2.08
2023-11-02T11:00:01.276Z,2.15
2023-11-02T11:02:28.101Z,2.25
2023-11-02T11:04:58.033Z,2.35
2023-11-02T11:07:26.291Z,0.98
2023-11-02T11:09:53.524Z,2.08
2023-11-02T11:12:20.781Z,2.45
2023-11-02T11:14:48.427Z,2.53
2023-11-02T11:17:16.114Z,2.85
2023-11-02T11:19:43.012Z,2.58
2023-11-02T11:22:12.567Z,2.28
2023-11-02T11:24:39.724Z,2.70
2023-11-02T11:27:07.732Z,2.70
2023-11-02T11:29:37.195Z,2.65
2023-11-02T11:32:08.353Z,2.35
2023-11-02T11:34:53.636Z,2.03
2023-11-02T11:37:38.622Z,2.10
2023-11-02T11:40:08.079Z,2.28
2023-11-02T11:42:53.545Z,2.08
2023-11-02T11:45:33.808Z,2.15
2023-11-02T11:48:01.068Z,2.10
2023-11-02T11:50:34.071Z,1.70
2023-11-02T11:53:19.280Z,2.15
2023-11-02T11:55:47.008Z,2.22
2023-11-02T11:58:14.359Z,1.63
2023-11-02T12:00:50.428Z,1.75
2023-11-02T12:03:40.397Z,2.00
2023-11-02T12:06:08.753Z,2.20
2023-11-02T12:08:45.662Z,1.88
2023-11-02T12:11:15.553Z,1.90
2023-11-02T12:13:51.717Z,1.85
2023-11-02T12:16:19.810Z,1.65
2023-11-02T12:18:47.763Z,1.50
2023-11-02T12:21:22.336Z,1.95
2023-11-02T12:23:51.805Z,2.20
2023-11-02T12:26:22.278Z,2.17
2023-11-02T12:28:52.759Z,1.77
2023-11-02T12:31:29.546Z,2.75
2023-11-02T12:33:57.373Z,2.72
2023-11-02T12:36:24.563Z,2.63
2023-11-02T12:38:52.596Z,2.92
2023-11-02T12:41:26.460Z,2.47
2023-11-02T12:44:05.325Z,2.10
2023-11-02T12:46:33.667Z,2.20
2023-11-02T12:49:20.134Z,2.22
2023-11-02T12:52:02.879Z,1.85
2023-11-02T12:54:32.622Z,2.13
2023-11-02T12:57:04.196Z,1.70
2023-11-02T12:59:36.454Z,3.22
2023-11-02T13:02:05.588Z,2.70
2023-11-02T13:04:48.398Z,3.63
2023-11-02T13:07:33.436Z,4.07
2023-11-02T13:10:05.845Z,4.85
2023-11-02T13:12:34.959Z,4.22
2023-11-02T13:15:03.060Z,3.97
2023-11-02T13:17:29.808Z,3.42
2023-11-02T13:19:57.284Z,2.60
2023-11-02T13:22:24.919Z,2.97
2023-11-02T13:24:52.578Z,2.92
2023-11-02T13:27:19.688Z,2.40
2023-11-02T13:29:47.690Z,2.13
2023-11-02T13:32:16.476Z,2.40
2023-11-02T13:34:43.439Z,2.10
2023-11-02T13:37:12.596Z,1.98
2023-11-02T13:39:39.515Z,1.92
2023-11-02T13:42:07.007Z,1.40
2023-11-02T13:44:34.070Z,1.80
2023-11-02T13:47:01.661Z,1.30
2023-11-02T13:49:31.338Z,1.60
2023-11-02T13:51:58.187Z,1.50
2023-11-02T13:54:25.136Z,1.40
2023-11-02T13:56:51.952Z,1.13
2023-11-02T13:59:18.671Z,1.45
2023-11-02T14:01:45.513Z,1.50
2023-11-02T14:04:12.539Z,1.65
2023-11-02T14:06:39.767Z,1.88
2023-11-02T14:09:07.311Z,1.77
2023-11-02T14:11:34.075Z,1.40
2023-11-02T14:14:02.022Z,1.48
2023-11-02T14:16:28.801Z,1.85
2023-11-02T14:18:55.637Z,1.38
2023-11-02T14:21:22.756Z,1.58
2023-11-02T14:23:49.520Z,2.00
2023-11-02T14:26:16.379Z,1.80
2023-11-02T14:28:43.140Z,1.85
2023-11-02T14:31:10.384Z,1.73
2023-11-02T14:33:37.657Z,1.42
2023-11-02T14:36:08.370Z,1.50
2023-11-02T14:38:35.230Z,1.45
2023-11-02T14:41:02.055Z,1.33
2023-11-02T14:43:28.784Z,1.80
2023-11-02T14:45:56.159Z,1.38
2023-11-02T14:48:23.043Z,1.50
2023-11-02T14:50:50.382Z,1.70
2023-11-02T14:53:17.834Z,1.50
2023-11-02T14:55:44.683Z,1.30
2023-11-02T14:58:12.033Z,1.35
2023-11-02T15:00:38.879Z,1.40
2023-11-02T15:03:06.840Z,1.70
2023-11-02T15:05:34.460Z,1.33
2023-11-02T15:08:01.343Z,1.40
2023-11-02T15:10:28.062Z,1.45
2023-11-02T15:12:54.846Z,1.25
2023-11-02T15:15:21.672Z,1.75
2023-11-02T15:17:48.470Z,1.50
2023-11-02T15:20:16.909Z,1.90
2023-11-02T15:22:44.732Z,1.38
2023-11-02T15:25:11.643Z,1.35
2023-11-02T15:27:38.734Z,2.35
2023-11-02T15:30:07.781Z,1.80
2023-11-02T15:32:37.628Z,1.45
2023-11-02T15:35:04.657Z,1.92
2023-11-02T15:37:31.444Z,1.75
2023-11-02T15:39:58.744Z,1.63
2023-11-02T15:42:25.727Z,1.70
2023-11-02T15:44:52.640Z,1.70
2023-11-02T15:47:23.422Z,1.20
2023-11-02T15:49:50.820Z,1.25
2023-11-02T15:52:20.568Z,1.38
2023-11-02T15:54:49.280Z,1.48
2023-11-02T15:57:17.561Z,1.30
2023-11-02T15:59:44.899Z,1.40
2023-11-02T16:02:14.141Z,1.75
2023-11-02T16:04:42.285Z,1.90
2023-11-02T16:07:09.703Z,1.60
2023-11-02T16:09:36.772Z,1.65
2023-11-02T16:12:10.296Z,1.50
2023-11-02T16:14:38.687Z,1.70
2023-11-02T16:17:05.549Z,3.63
2023-11-02T16:19:34.641Z,2.22
2023-11-02T16:22:02.184Z,1.98
2023-11-02T16:24:29.190Z,2.30
2023-11-02T16:26:56.510Z,1.67
2023-11-02T16:29:23.755Z,1.70
2023-11-02T16:31:50.964Z,1.60
2023-11-02T16:34:27.767Z,1.40
2023-11-02T16:37:02.073Z,1.35
2023-11-02T16:39:29.071Z,1.70
2023-11-02T16:41:56.129Z,1.17
2023-11-02T16:44:24.682Z,1.77
2023-11-02T16:46:52.141Z,1.80
2023-11-02T16:49:20.074Z,1.48
2023-11-02T16:51:48.113Z,1.90
2023-11-02T16:54:15.291Z,2.17
2023-11-02T16:56:42.735Z,2.35
2023-11-02T16:59:12.917Z,2.10
2023-11-02T17:01:40.079Z,1.90
2023-11-02T17:04:07.524Z,1.90
2023-11-02T17:06:35.071Z,2.00
2023-11-02T17:09:02.395Z,2.08
2023-11-02T17:11:29.226Z,2.13
2023-11-02T17:13:55.987Z,1.70
2023-11-02T17:16:22.916Z,1.88
2023-11-02T17:18:50.414Z,1.88
2023-11-02T17:21:17.285Z,2.22
2023-11-02T17:23:44.264Z,1.35
2023-11-02T17:26:11.381Z,1.50
2023-11-02T17:28:41.356Z,1.60
2023-11-02T17:31:10.381Z,1.50
2023-11-02T17:33:37.434Z,1.67
2023-11-02T17:36:04.754Z,1.70
2023-11-02T17:38:31.509Z,1.40
2023-11-02T17:40:58.757Z,1.30
2023-11-02T17:43:25.517Z,1.40
2023-11-02T17:45:53.930Z,1.38
2023-11-02T17:48:21.114Z,1.55
2023-11-02T17:50:49.315Z,1.60
2023-11-02T17:53:16.279Z,1.50
2023-11-02T17:55:43.068Z,1.95
2023-11-02T17:58:09.891Z,1.55
2023-11-02T18:00:37.315Z,1.73
2023-11-02T18:03:05.034Z,1.38
2023-11-02T18:05:37.808Z,1.58
2023-11-02T18:08:04.772Z,1.95
2023-11-02T18:10:31.869Z,2.15
2023-11-02T18:12:59.250Z,2.67
2023-11-02T18:15:27.014Z,2.30
2023-11-02T18:17:54.225Z,1.88
2023-11-02T18:20:21.122Z,1.58
2023-11-02T18:22:48.123Z,1.40
2023-11-02T18:25:15.953Z,1.48
2023-11-02T18:27:43.736Z,1.55
2023-11-02T18:30:12.254Z,1.45
2023-11-02T18:32:39.996Z,1.38
2023-11-02T18:35:07.470Z,1.95
2023-11-02T18:37:34.302Z,1.75
2023-11-02T18:40:01.775Z,1.70
2023-11-02T18:42:29.706Z,1.73
2023-11-02T18:44:56.974Z,1.92
2023-11-02T18:47:24.147Z,1.70
2023-11-02T18:49:58.723Z,2.10
2023-11-02T18:52:25.515Z,3.42
2023-11-02T18:54:57.523Z,2.78
2023-11-02T18:57:26.213Z,2.17
2023-11-02T18:59:53.484Z,2.03
2023-11-02T19:02:21.087Z,1.88
2023-11-02T19:04:48.485Z,1.80
2023-11-02T19:07:18.081Z,1.85
2023-11-02T19:09:48.277Z,1.77
2023-11-02T19:12:18.304Z,1.58
2023-11-02T19:14:45.113Z,1.92
2023-11-02T19:17:11.867Z,1.63
2023-11-02T19:19:39.637Z,2.03
2023-11-02T19:22:07.290Z,1.67
2023-11-02T19:24:34.337Z,1.80
2023-11-02T19:27:01.564Z,1.65
2023-11-02T19:29:28.475Z,1.83
2023-11-02T19:31:55.836Z,1.63
2023-11-02T19:34:23.729Z,1.60
2023-11-02T19:36:52.296Z,2.00
2023-11-02T19:39:20.091Z,1.60
2023-11-02T19:41:46.798Z,1.60
2023-11-02T19:44:13.560Z,1.60
2023-11-02T19:46:46.219Z,1.48
2023-11-02T19:49:13.394Z,2.00
2023-11-02T19:51:41.301Z,1.80
2023-11-02T19:54:10.742Z,1.70
2023-11-02T19:56:44.417Z,2.00
2023-11-02T19:59:12.156Z,1.70
2023-11-02T20:01:42.193Z,1.50
2023-11-02T20:04:09.573Z,1.98
2023-11-02T20:06:37.197Z,1.75
2023-11-02T20:09:07.662Z,1.63
2023-11-02T20:11:34.754Z,1.70
2023-11-02T20:14:01.566Z,1.40
2023-11-02T20:16:28.886Z,1.48
2023-11-02T20:18:55.792Z,1.80
2023-11-02T20:21:22.658Z,1.90
2023-11-02T20:23:49.521Z,1.70
2023-11-02T20:26:16.692Z,1.80
2023-11-02T20:28:44.626Z,2.00
2023-11-02T20:31:12.395Z,2.00
2023-11-02T20:33:39.372Z,1.63
2023-11-02T20:36:06.392Z,1.75
2023-11-02T20:38:33.478Z,1.50
2023-11-02T20:41:00.800Z,1.75
2023-11-02T20:43:28.653Z,1.65
2023-11-02T20:45:56.028Z,1.63
2023-11-02T20:48:23.139Z,1.88
2023-11-02T20:50:50.267Z,1.50
2023-11-02T20:53:17.090Z,1.52
2023-11-02T20:55:44.500Z,1.48
2023-11-02T20:58:11.162Z,1.55
2023-11-02T21:00:50.004Z,1.50
2023-11-02T21:03:20.541Z,1.67
2023-11-02T21:05:48.963Z,1.55
2023-11-02T21:08:15.886Z,1.95
2023-11-02T21:10:42.675Z,1.92
2023-11-02T21:13:09.568Z,1.95
2023-11-02T21:15:36.367Z,2.17
2023-11-02T21:18:03.272Z,2.47
2023-11-02T21:20:30.196Z,2.10
2023-11-02T21:22:56.848Z,2.20
2023-11-02T21:25:23.587Z,1.85
2023-11-02T21:27:50.495Z,2.20
2023-11-02T21:30:17.394Z,2.00
2023-11-02T21:32:44.632Z,2.35
2023-11-02T21:35:11.339Z,2.45
2023-11-02T21:37:38.242Z,2.17
2023-11-02T21:40:05.809Z,1.90
2023-11-02T21:42:33.186Z,2.20
2023-11-02T21:45:00.365Z,1.92
2023-11-02T21:47:27.138Z,1.90
2023-11-02T21:49:53.854Z,1.95
2023-11-02T21:52:20.738Z,2.20
2023-11-02T21:54:47.800Z,2.17
2023-11-02T21:57:14.634Z,2.17
2023-11-02T21:59:41.890Z,2.45
2023-11-02T22:02:08.630Z,1.95
2023-11-02T22:04:35.497Z,2.15
2023-11-02T22:07:02.332Z,2.45
2023-11-02T22:09:29.105Z,2.20
2023-11-02T22:11:56.542Z,2.08
2023-11-02T22:14:23.496Z,2.15
2023-11-02T22:16:50.322Z,2.17
2023-11-02T22:19:17.157Z,2.20
2023-11-02T22:21:44.497Z,2.22
2023-11-02T22:24:11.482Z,2.58
2023-11-02T22:26:38.247Z,2.30
2023-11-02T22:29:05.066Z,1.88
2023-11-02T22:31:31.746Z,2.63
2023-11-02T22:33:58.645Z,2.10
2023-11-02T22:36:25.575Z,2.15
2023-11-02T22:38:52.297Z,2.30
2023-11-02T22:41:19.034Z,2.20
2023-11-02T22:43:45.752Z,2.20
2023-11-02T22:46:12.722Z,2.20
2023-11-02T22:48:40.824Z,1.73
2023-11-02T22:51:11.851Z,2.10
2023-11-02T22:53:38.563Z,2.20
2023-11-02T22:56:09.324Z,2.08
2023-11-02T22:58:36.629Z,2.17
2023-11-02T23:01:03.698Z,1.88
2023-11-02T23:03:30.552Z,2.17
2023-11-02T23:05:57.666Z,1.80
2023-11-02T23:08:24.436Z,1.85
2023-11-02T23:10:52.882Z,1.92
2023-11-02T23:13:20.173Z,2.00
2023-11-02T23:15:47.330Z,2.10
2023-11-02T23:18:14.123Z,1.98
2023-11-02T23:20:41.008Z,2.30
2023-11-02T23:23:07.981Z,2.28
2023-11-02T23:25:34.849Z,2.22
2023-11-02T23:28:01.640Z,2.33
2023-11-02T23:30:28.734Z,1.83
2023-11-02T23:32:55.595Z,2.20
2023-11-02T23:35:22.543Z,1.75
2023-11-02T23:37:49.321Z,1.90
2023-11-02T23:40:17.261Z,2.25
2023-11-02T23:42:50.531Z,1.88
2023-11-02T23:45:22.479Z,1.98
2023-11-02T23:47:50.387Z,2.70
2023-11-02T23:50:18.023Z,1.90
2023-11-02T23:52:46.975Z,1.80
2023-11-02T23:55:17.009Z,2.20
2023-11-02T23:57:44.053Z,2.20
